Time;durP1;ratioP1;P1;durP2;ratioP2;P2;SDS_P1;SDS_P2;PMS_P1;PMS_P2;Temp;Humidity;BMP_temperature;BMP_pressure;BME280_temperature;BME280_humidity;BME280_pressure;Samples;Min_cycle;Max_cycle;Signal;HPM_P1;HPM_P2
2023/07/11 00:00:03;;;;;;;344.88;312.42;;;;;;;;;;4982627;28;20708;-57
2023/07/11 00:02:28;;;;;;;262.75;240.40;;;;;;;;;;4980618;28;20030;-58
2023/07/11 00:04:54;;;;;;;393.80;353.73;;;;;;;;;;4981162;28;20026;-56
2023/07/11 00:07:19;;;;;;;308.63;281.53;;;;;;;;;;4980591;28;20305;-56
2023/07/11 00:09:47;;;;;;;256.07;234.17;;;;;;;;;;4980712;28;20689;-58
2023/07/11 00:12:13;;;;;;;275.80;250.75;;;;;;;;;;4981902;28;20375;-58
2023/07/11 00:14:38;;;;;;;290.73;262.30;;;;;;;;;;4983142;28;20072;-57
2023/07/11 00:17:05;;;;;;;355.77;320.92;;;;;;;;;;4984032;28;20065;-56
2023/07/11 00:19:31;;;;;;;248.05;226.75;;;;;;;;;;4980463;28;20026;-58
2023/07/11 00:21:56;;;;;;;254.85;232.70;;;;;;;;;;4982281;28;20500;-58
2023/07/11 00:24:21;;;;;;;290.95;264.83;;;;;;;;;;4982135;28;20076;-55
2023/07/11 00:26:47;;;;;;;287.90;262.77;;;;;;;;;;4983007;28;20169;-55
2023/07/11 00:29:16;;;;;;;339.30;307.17;;;;;;;;;;4982179;28;20146;-54
2023/07/11 00:31:42;;;;;;;334.15;302.63;;;;;;;;;;4983690;28;20268;-54
2023/07/11 00:34:07;;;;;;;264.63;241.38;;;;;;;;;;4983231;28;20030;-55
2023/07/11 00:36:32;;;;;;;256.53;234.93;;;;;;;;;;4980568;28;20106;-57
2023/07/11 00:38:57;;;;;;;302.00;273.90;;;;;;;;;;4982668;28;20308;-57
2023/07/11 00:41:22;;;;;;;226.60;205.47;;;;;;;;;;4982828;28;20321;-56
2023/07/11 00:43:48;;;;;;;224.13;203.17;;;;;;;;;;4982913;28;20258;-56
2023/07/11 00:46:14;;;;;;;253.13;229.60;;;;;;;;;;4980733;28;20031;-54
2023/07/11 00:48:41;;;;;;;293.48;264.95;;;;;;;;;;4982224;28;20069;-56
2023/07/11 00:51:08;;;;;;;236.80;215.70;;;;;;;;;;4982189;28;20072;-55
2023/07/11 00:53:34;;;;;;;227.50;205.52;;;;;;;;;;4981447;28;20026;-54
2023/07/11 00:56:02;;;;;;;346.45;312.50;;;;;;;;;;4982202;28;20049;-54
2023/07/11 00:58:28;;;;;;;294.30;264.17;;;;;;;;;;4980044;28;20061;-54
2023/07/11 01:00:53;;;;;;;359.80;321.30;;;;;;;;;;4980623;28;20057;-54
2023/07/11 01:03:21;;;;;;;308.63;278.30;;;;;;;;;;4982451;28;20030;-54
2023/07/11 01:05:46;;;;;;;277.50;253.60;;;;;;;;;;4982224;28;20073;-56
2023/07/11 01:08:12;;;;;;;295.83;269.40;;;;;;;;;;4980401;28;20026;-54
2023/07/11 01:10:37;;;;;;;401.75;360.10;;;;;;;;;;4982449;28;20269;-56
2023/07/11 01:13:03;;;;;;;272.38;247.38;;;;;;;;;;4982317;28;20030;-55
2023/07/11 01:15:28;;;;;;;295.02;266.27;;;;;;;;;;4979004;28;20309;-54
2023/07/11 01:17:54;;;;;;;242.15;220.82;;;;;;;;;;4982425;28;20027;-54
2023/07/11 01:20:22;;;;;;;273.48;247.18;;;;;;;;;;4978552;28;20031;-54
2023/07/11 01:22:49;;;;;;;355.75;321.23;;;;;;;;;;4984334;28;20101;-57
2023/07/11 01:25:14;;;;;;;341.48;310.20;;;;;;;;;;4984068;28;20038;-55
2023/07/11 01:27:41;;;;;;;365.25;331.60;;;;;;;;;;4985664;28;20109;-55
2023/07/11 01:30:07;;;;;;;382.55;345.13;;;;;;;;;;4986634;28;20029;-55
2023/07/11 01:32:33;;;;;;;343.50;311.10;;;;;;;;;;4984278;28;20140;-55
2023/07/11 01:34:58;;;;;;;366.10;331.50;;;;;;;;;;4984432;28;20411;-54
2023/07/11 01:37:23;;;;;;;316.90;286.47;;;;;;;;;;4984919;28;20042;-56
2023/07/11 01:39:48;;;;;;;395.40;357.98;;;;;;;;;;4985183;28;20284;-57
2023/07/11 01:42:14;;;;;;;360.47;326.07;;;;;;;;;;4983728;28;20038;-55
2023/07/11 01:44:39;;;;;;;298.07;270.23;;;;;;;;;;4985341;28;20049;-56
2023/07/11 01:47:05;;;;;;;310.15;280.70;;;;;;;;;;4986165;28;20120;-54
2023/07/11 01:49:31;;;;;;;58.70;38.33;;;;;;;;;;4983846;28;20551;-53
2023/07/11 01:52:04;;;;;;;427.47;389.13;;;;;;;;;;4983514;28;20040;-54
2023/07/11 01:54:30;;;;;;;398.23;362.73;;;;;;;;;;4984767;28;20768;-56
2023/07/11 01:56:55;;;;;;;438.83;396.83;;;;;;;;;;4986118;28;20034;-54
2023/07/11 01:59:20;;;;;;;500.67;455.87;;;;;;;;;;4983047;28;20274;-54
2023/07/11 02:01:45;;;;;;;370.93;336.63;;;;;;;;;;4984363;28;20307;-56
2023/07/11 02:04:11;;;;;;;404.13;368.00;;;;;;;;;;4985253;28;20368;-54
2023/07/11 02:06:36;;;;;;;417.00;380.47;;;;;;;;;;4984478;28;20815;-56
2023/07/11 02:09:02;;;;;;;396.17;360.63;;;;;;;;;;4986234;28;21018;-56
2023/07/11 02:11:27;;;;;;;397.25;359.33;;;;;;;;;;4983325;28;20588;-56
2023/07/11 02:13:52;;;;;;;109.78;95.00;;;;;;;;;;4984279;28;20138;-56
2023/07/11 02:16:18;;;;;;;239.48;215.50;;;;;;;;;;4983772;28;20061;-56
2023/07/11 02:18:43;;;;;;;348.20;314.85;;;;;;;;;;4986219;28;20220;-55
2023/07/11 02:21:08;;;;;;;413.27;376.50;;;;;;;;;;4985549;28;20034;-54
2023/07/11 02:23:33;;;;;;;442.77;403.13;;;;;;;;;;4983003;28;20634;-56
2023/07/11 02:25:59;;;;;;;66.87;41.53;;;;;;;;;;4984329;28;20272;-56
2023/07/11 02:28:24;;;;;;;246.93;223.60;;;;;;;;;;4984824;28;20738;-54
2023/07/11 02:30:49;;;;;;;359.42;322.13;;;;;;;;;;4984447;28;20157;-57
2023/07/11 02:33:15;;;;;;;457.47;418.77;;;;;;;;;;4984561;28;20439;-54
2023/07/11 02:35:40;;;;;;;410.15;372.77;;;;;;;;;;4985081;28;20280;-53
2023/07/11 02:38:05;;;;;;;75.65;60.25;;;;;;;;;;4984836;28;20100;-55
2023/07/11 02:40:31;;;;;;;487.10;444.63;;;;;;;;;;4980132;28;20050;-56
2023/07/11 02:42:56;;;;;;;308.83;281.30;;;;;;;;;;4985586;28;20253;-56
2023/07/11 02:45:21;;;;;;;198.73;178.32;;;;;;;;;;4982477;28;20761;-56
2023/07/11 02:47:47;;;;;;;282.10;253.32;;;;;;;;;;4985595;28;20025;-54
2023/07/11 02:50:12;;;;;;;442.52;404.58;;;;;;;;;;4984270;28;20022;-57
2023/07/11 02:52:37;;;;;;;409.93;374.03;;;;;;;;;;4983289;28;20479;-53
2023/07/11 02:55:03;;;;;;;415.50;377.25;;;;;;;;;;4983896;28;20859;-54
2023/07/11 02:57:28;;;;;;;370.33;335.10;;;;;;;;;;4984457;28;20407;-54
2023/07/11 02:59:53;;;;;;;427.27;389.25;;;;;;;;;;4981720;28;20029;-53
2023/07/11 03:02:19;;;;;;;36.20;21.93;;;;;;;;;;4983410;28;20034;-55
2023/07/11 03:04:44;;;;;;;461.98;420.35;;;;;;;;;;4983803;28;20026;-53
2023/07/11 03:07:09;;;;;;;491.97;449.53;;;;;;;;;;4984786;28;20699;-57
2023/07/11 03:09:34;;;;;;;101.73;86.73;;;;;;;;;;4982853;28;21034;-57
2023/07/11 03:12:00;;;;;;;100.68;84.85;;;;;;;;;;4983367;28;20300;-55
2023/07/11 03:14:26;;;;;;;428.03;390.90;;;;;;;;;;4985006;28;20141;-58
2023/07/11 03:16:51;;;;;;;118.75;105.57;;;;;;;;;;4985649;28;20253;-57
2023/07/11 03:19:20;;;;;;;118.93;98.70;;;;;;;;;;4984105;28;20452;-56
2023/07/11 03:21:45;;;;;;;156.30;134.55;;;;;;;;;;4984322;28;20713;-58
2023/07/11 03:24:10;;;;;;;324.35;296.33;;;;;;;;;;4984611;28;20349;-56
2023/07/11 03:26:36;;;;;;;382.65;349.38;;;;;;;;;;4982450;28;20129;-57
2023/07/11 03:29:01;;;;;;;513.53;470.23;;;;;;;;;;4984927;28;20602;-57
2023/07/11 03:31:27;;;;;;;475.52;435.17;;;;;;;;;;4981124;28;20045;-57
2023/07/11 03:33:52;;;;;;;325.27;296.97;;;;;;;;;;4983235;28;20956;-58
2023/07/11 03:36:17;;;;;;;323.17;295.00;;;;;;;;;;4983628;28;20993;-58
2023/07/11 03:38:42;;;;;;;449.77;407.63;;;;;;;;;;4981656;28;20261;-59
2023/07/11 03:41:07;;;;;;;501.27;457.00;;;;;;;;;;4983067;28;20308;-58
2023/07/11 03:43:33;;;;;;;82.40;45.73;;;;;;;;;;4983881;28;20280;-56
2023/07/11 03:45:58;;;;;;;126.93;101.90;;;;;;;;;;4983219;28;20286;-57
2023/07/11 03:48:23;;;;;;;517.03;473.27;;;;;;;;;;4982601;28;21052;-56
2023/07/11 03:50:48;;;;;;;478.13;435.63;;;;;;;;;;4982510;28;20332;-58
2023/07/11 03:53:14;;;;;;;446.93;408.83;;;;;;;;;;4983989;28;20280;-58
2023/07/11 03:55:41;;;;;;;378.70;342.50;;;;;;;;;;4980045;28;20336;-57
2023/07/11 03:58:06;;;;;;;448.42;410.98;;;;;;;;;;4983698;28;20265;-58
2023/07/11 04:00:31;;;;;;;443.20;404.53;;;;;;;;;;4980795;28;20393;-57
2023/07/11 04:02:56;;;;;;;385.52;351.55;;;;;;;;;;4985368;28;20303;-56
2023/07/11 04:05:22;;;;;;;377.67;344.80;;;;;;;;;;4981344;28;20114;-55
2023/07/11 04:07:47;;;;;;;457.13;418.10;;;;;;;;;;4983314;28;20357;-56
2023/07/11 04:10:12;;;;;;;280.10;254.63;;;;;;;;;;4983121;28;20092;-58
2023/07/11 04:12:38;;;;;;;253.13;227.70;;;;;;;;;;4981609;28;20261;-56
2023/07/11 04:15:04;;;;;;;468.00;430.40;;;;;;;;;;4982848;28;20058;-55
2023/07/11 04:17:29;;;;;;;310.27;281.48;;;;;;;;;;4980788;28;20443;-56
2023/07/11 04:19:54;;;;;;;367.67;332.50;;;;;;;;;;4983681;28;20045;-58
2023/07/11 04:22:19;;;;;;;423.37;388.50;;;;;;;;;;4981835;28;20130;-58
2023/07/11 04:24:45;;;;;;;414.07;376.97;;;;;;;;;;4980579;28;20825;-56
2023/07/11 04:27:10;;;;;;;420.23;386.80;;;;;;;;;;4981596;28;20278;-57
2023/07/11 04:29:36;;;;;;;480.57;441.23;;;;;;;;;;4980770;28;20273;-56
2023/07/11 04:32:01;;;;;;;469.67;430.88;;;;;;;;;;4982122;28;20454;-55
2023/07/11 04:34:27;;;;;;;466.95;428.17;;;;;;;;;;4982800;28;20539;-53
2023/07/11 04:36:52;;;;;;;481.13;442.63;;;;;;;;;;4979781;28;20225;-56
2023/07/11 04:39:17;;;;;;;498.90;459.03;;;;;;;;;;4982454;28;20351;-56
2023/07/11 04:41:42;;;;;;;473.77;433.30;;;;;;;;;;4981624;28;20320;-57
2023/07/11 04:44:08;;;;;;;386.03;352.27;;;;;;;;;;4982093;28;20037;-55
2023/07/11 04:46:33;;;;;;;473.02;432.45;;;;;;;;;;4980945;28;20137;-58
2023/07/11 04:48:58;;;;;;;439.27;401.37;;;;;;;;;;4983012;28;20022;-55
2023/07/11 04:51:24;;;;;;;420.17;382.07;;;;;;;;;;4983183;28;20629;-54
2023/07/11 04:53:49;;;;;;;409.23;375.10;;;;;;;;;;4982176;28;20284;-54
2023/07/11 04:56:14;;;;;;;393.93;361.63;;;;;;;;;;4981344;28;20380;-55
2023/07/11 04:58:40;;;;;;;316.17;286.83;;;;;;;;;;4981700;28;20651;-54
2023/07/11 05:01:07;;;;;;;407.15;371.23;;;;;;;;;;4981969;28;20045;-55
2023/07/11 05:03:32;;;;;;;455.95;416.35;;;;;;;;;;4979630;28;20030;-54
2023/07/11 05:05:58;;;;;;;441.35;399.92;;;;;;;;;;4981434;28;20243;-58
2023/07/11 05:08:23;;;;;;;375.15;340.80;;;;;;;;;;4981996;28;20116;-56
2023/07/11 05:11:01;;;;;;;336.50;308.13;;;;;;;;;;4978763;28;20404;-54
2023/07/11 05:13:26;;;;;;;280.08;256.95;;;;;;;;;;4981571;28;20034;-57
2023/07/11 05:15:57;;;;;;;414.88;381.33;;;;;;;;;;4978653;28;20038;-55
2023/07/11 05:18:22;;;;;;;350.90;321.23;;;;;;;;;;4981245;28;20073;-57
2023/07/11 05:20:52;;;;;;;272.00;248.77;;;;;;;;;;4980655;28;20464;-58
2023/07/11 05:23:17;;;;;;;247.02;227.45;;;;;;;;;;4982656;28;20360;-55
2023/07/11 05:25:42;;;;;;;443.50;406.80;;;;;;;;;;4979347;28;20052;-55
2023/07/11 05:28:08;;;;;;;379.97;349.77;;;;;;;;;;4981949;28;20536;-55
2023/07/11 05:30:36;;;;;;;373.33;341.17;;;;;;;;;;4980590;28;20814;-55
2023/07/11 05:33:02;;;;;;;311.00;285.65;;;;;;;;;;4979980;28;20319;-56
2023/07/11 05:35:27;;;;;;;274.03;251.80;;;;;;;;;;4980377;28;20209;-56
2023/07/11 05:37:52;;;;;;;379.27;347.53;;;;;;;;;;4981500;28;20019;-56
2023/07/11 05:40:17;;;;;;;284.63;260.23;;;;;;;;;;4979015;28;21058;-56
2023/07/11 05:42:43;;;;;;;334.50;302.90;;;;;;;;;;4978545;28;20054;-56
2023/07/11 05:45:08;;;;;;;264.77;242.47;;;;;;;;;;4981826;28;20027;-55
2023/07/11 05:47:33;;;;;;;319.38;292.42;;;;;;;;;;4981049;28;20060;-57
2023/07/11 05:49:59;;;;;;;359.83;326.88;;;;;;;;;;4982034;28;20018;-55
2023/07/11 05:52:24;;;;;;;405.80;370.87;;;;;;;;;;4981541;28;20235;-56
2023/07/11 05:54:49;;;;;;;375.67;341.67;;;;;;;;;;4980556;28;20247;-58
2023/07/11 05:57:14;;;;;;;478.37;436.97;;;;;;;;;;4983875;28;20097;-56
2023/07/11 05:59:40;;;;;;;323.13;295.10;;;;;;;;;;4982868;28;20656;-57
2023/07/11 06:02:05;;;;;;;439.23;400.38;;;;;;;;;;4981441;28;20038;-58
2023/07/11 06:04:31;;;;;;;462.37;423.30;;;;;;;;;;4981545;28;20019;-55
2023/07/11 06:06:56;;;;;;;369.43;337.63;;;;;;;;;;4981218;28;20703;-57
2023/07/11 06:09:21;;;;;;;392.23;359.50;;;;;;;;;;4986115;28;20072;-55
2023/07/11 06:11:47;;;;;;;341.60;313.80;;;;;;;;;;4983366;28;20479;-56
2023/07/11 06:14:13;;;;;;;525.90;478.70;;;;;;;;;;4985630;28;20281;-55
2023/07/11 06:16:39;;;;;;;629.70;567.05;;;;;;;;;;4984105;28;20253;-57
2023/07/11 06:19:05;;;;;;;477.83;435.60;;;;;;;;;;4986528;28;20129;-55
2023/07/11 06:21:30;;;;;;;416.37;379.60;;;;;;;;;;4982324;28;20036;-54
2023/07/11 06:23:56;;;;;;;429.33;394.15;;;;;;;;;;4985528;28;20069;-56
2023/07/11 06:26:21;;;;;;;558.25;509.95;;;;;;;;;;4985118;28;20031;-54
2023/07/11 06:28:47;;;;;;;490.67;443.47;;;;;;;;;;4981689;28;20029;-54
2023/07/11 06:31:12;;;;;;;456.10;417.70;;;;;;;;;;4983965;28;20038;-56
2023/07/11 06:33:38;;;;;;;481.27;442.02;;;;;;;;;;4983906;28;20623;-55
2023/07/11 06:36:04;;;;;;;468.13;426.00;;;;;;;;;;4985592;28;20475;-56
2023/07/11 06:38:29;;;;;;;539.47;490.67;;;;;;;;;;4985205;28;20795;-54
2023/07/11 06:40:55;;;;;;;426.40;380.70;;;;;;;;;;4982531;28;20108;-56
2023/07/11 06:43:21;;;;;;;604.50;547.90;;;;;;;;;;4985217;28;20037;-56
2023/07/11 06:45:48;;;;;;;502.02;450.42;;;;;;;;;;4982314;28;20530;-55
2023/07/11 06:48:17;;;;;;;525.65;478.88;;;;;;;;;;4983586;28;20026;-56
2023/07/11 06:50:46;;;;;;;551.17;502.27;;;;;;;;;;4982759;28;20046;-57
2023/07/11 06:53:11;;;;;;;472.50;424.55;;;;;;;;;;4985457;28;20025;-55
2023/07/11 06:55:36;;;;;;;539.87;488.63;;;;;;;;;;4983565;28;20065;-57
2023/07/11 06:58:01;;;;;;;606.33;551.43;;;;;;;;;;4988768;28;20033;-57
2023/07/11 07:00:26;;;;;;;607.87;554.43;;;;;;;;;;4983391;28;20120;-58
2023/07/11 07:02:52;;;;;;;558.60;510.13;;;;;;;;;;4981992;28;20018;-57
2023/07/11 07:05:17;;;;;;;624.58;559.13;;;;;;;;;;4988497;28;20428;-55
2023/07/11 07:07:42;;;;;;;478.50;426.93;;;;;;;;;;4986241;28;20030;-57
2023/07/11 07:10:08;;;;;;;523.93;476.17;;;;;;;;;;4987797;28;20029;-61
2023/07/11 07:12:33;;;;;;;541.33;491.95;;;;;;;;;;4987542;28;20673;-55
2023/07/11 07:14:58;;;;;;;536.47;478.33;;;;;;;;;;4988149;28;20123;-57
2023/07/11 07:17:23;;;;;;;671.43;602.20;;;;;;;;;;4988811;28;21034;-57
2023/07/11 07:19:49;;;;;;;631.57;568.20;;;;;;;;;;4987337;28;20030;-56
2023/07/11 07:22:15;;;;;;;640.67;528.77;;;;;;;;;;4987299;28;20038;-57
2023/07/11 07:24:40;;;;;;;586.97;532.72;;;;;;;;;;4993783;28;20072;-55
2023/07/11 07:27:06;;;;;;;552.03;501.80;;;;;;;;;;4987062;28;20062;-58
2023/07/11 07:29:31;;;;;;;686.93;595.67;;;;;;;;;;4988533;28;20269;-56
2023/07/11 07:31:56;;;;;;;635.00;509.03;;;;;;;;;;4986660;28;20062;-58
2023/07/11 07:34:21;;;;;;;607.87;550.60;;;;;;;;;;4988391;28;20189;-58
2023/07/11 07:36:46;;;;;;;624.47;533.13;;;;;;;;;;4987134;28;20038;-58
2023/07/11 07:39:12;;;;;;;750.83;644.50;;;;;;;;;;4986965;28;20048;-56
2023/07/11 07:41:37;;;;;;;660.63;579.47;;;;;;;;;;4986189;28;20852;-58
2023/07/11 07:44:02;;;;;;;629.83;528.07;;;;;;;;;;4987775;28;20022;-56
2023/07/11 07:46:28;;;;;;;610.03;547.53;;;;;;;;;;4985617;28;20049;-57
2023/07/11 07:48:53;;;;;;;594.08;529.60;;;;;;;;;;4984762;28;20360;-56
2023/07/11 07:51:19;;;;;;;588.87;534.40;;;;;;;;;;4988867;28;20033;-56
2023/07/11 07:53:44;;;;;;;631.22;443.83;;;;;;;;;;4985658;28;20316;-56
2023/07/11 07:56:09;;;;;;;393.30;259.15;;;;;;;;;;4987640;28;20034;-57
2023/07/11 07:58:34;;;;;;;725.20;471.33;;;;;;;;;;4986576;28;20079;-57
2023/07/11 08:01:00;;;;;;;691.03;485.40;;;;;;;;;;4984294;28;20241;-57
2023/07/11 08:03:25;;;;;;;570.55;514.08;;;;;;;;;;4988377;28;20018;-55
2023/07/11 08:05:54;;;;;;;656.03;597.13;;;;;;;;;;4987550;28;20038;-55
2023/07/11 08:08:20;;;;;;;785.97;685.40;;;;;;;;;;4986322;28;20026;-58
2023/07/11 08:10:45;;;;;;;698.67;539.38;;;;;;;;;;4986179;28;20404;-58
2023/07/11 08:13:10;;;;;;;559.33;507.77;;;;;;;;;;4985894;28;20018;-58
2023/07/11 08:15:36;;;;;;;629.50;570.40;;;;;;;;;;4985760;28;20085;-55
2023/07/11 08:18:01;;;;;;;481.87;272.57;;;;;;;;;;4985696;28;20022;-58
2023/07/11 08:20:26;;;;;;;570.10;466.67;;;;;;;;;;4986086;28;20038;-57
2023/07/11 08:22:52;;;;;;;722.03;614.80;;;;;;;;;;4985775;28;20045;-58
2023/07/11 08:25:17;;;;;;;510.20;431.70;;;;;;;;;;4987605;28;20038;-57
2023/07/11 08:27:43;;;;;;;624.67;413.87;;;;;;;;;;4985556;28;20100;-58
2023/07/11 08:30:08;;;;;;;690.53;453.80;;;;;;;;;;4986922;28;20134;-57
2023/07/11 08:32:34;;;;;;;839.33;638.75;;;;;;;;;;4987453;28;20133;-58
2023/07/11 08:34:59;;;;;;;570.33;511.63;;;;;;;;;;4987171;28;20073;-56
2023/07/11 08:37:25;;;;;;;285.97;174.97;;;;;;;;;;4985475;28;20118;-56
2023/07/11 08:39:50;;;;;;;156.73;76.73;;;;;;;;;;4985622;28;20031;-56
2023/07/11 08:42:18;;;;;;;680.30;433.77;;;;;;;;;;4985776;28;20042;-56
2023/07/11 08:44:47;;;;;;;689.63;542.40;;;;;;;;;;4986640;28;20026;-56
2023/07/11 08:47:24;;;;;;;270.77;180.23;;;;;;;;;;4984855;28;20083;-57
2023/07/11 08:49:57;;;;;;;508.75;370.38;;;;;;;;;;4987261;28;20507;-56
2023/07/11 08:52:23;;;;;;;488.35;343.88;;;;;;;;;;4986169;28;20053;-56
2023/07/11 08:55:21;;;;;;;513.22;458.50;;;;;;;;;;4984461;28;20022;-58
2023/07/11 08:58:05;;;;;;;399.45;242.82;;;;;;;;;;4967650;28;20141;-57
2023/07/11 09:00:31;;;;;;;447.85;287.02;;;;;;;;;;4985820;28;20519;-56
2023/07/11 09:02:59;;;;;;;173.82;114.15;;;;;;;;;;4986349;28;20096;-58
2023/07/11 09:05:42;;;;;;;357.40;148.20;;;;;;;;;;4984519;28;20028;-57
2023/07/11 09:08:12;;;;;;;189.20;168.73;;;;;;;;;;4986398;28;20138;-57
2023/07/11 09:10:45;;;;;;;689.80;492.93;;;;;;;;;;4985418;28;20038;-57
2023/07/11 09:13:26;;;;;;;110.10;62.25;;;;;;;;;;4985713;28;20470;-55
2023/07/11 09:16:04;;;;;;;718.58;535.45;;;;;;;;;;4984137;28;20091;-56
2023/07/11 09:18:32;;;;;;;683.75;535.10;;;;;;;;;;4987030;28;20038;-56
2023/07/11 09:21:01;;;;;;;539.90;470.42;;;;;;;;;;4985529;28;20085;-58
2023/07/11 09:23:43;;;;;;;511.48;425.35;;;;;;;;;;4986136;28;20022;-56
2023/07/11 09:26:16;;;;;;;614.38;451.02;;;;;;;;;;4985149;28;20504;-57
2023/07/11 09:28:42;;;;;;;679.67;552.47;;;;;;;;;;4986100;28;20034;-55
2023/07/11 09:31:10;;;;;;;608.22;478.60;;;;;;;;;;4985525;28;20049;-56
2023/07/11 09:33:37;;;;;;;468.05;268.65;;;;;;;;;;4988428;28;20046;-58
2023/07/11 09:36:08;;;;;;;677.88;556.78;;;;;;;;;;4984068;28;20685;-58
2023/07/11 09:38:47;;;;;;;510.95;451.98;;;;;;;;;;4987258;28;20606;-54
2023/07/11 09:41:18;;;;;;;535.47;355.10;;;;;;;;;;4988079;28;20880;-57
2023/07/11 09:43:43;;;;;;;348.60;278.40;;;;;;;;;;4987039;28;20515;-57
2023/07/11 09:46:13;;;;;;;501.43;423.33;;;;;;;;;;4988050;28;20554;-57
2023/07/11 09:48:39;;;;;;;304.63;244.83;;;;;;;;;;4991134;28;20280;-57
2023/07/11 09:51:19;;;;;;;627.42;298.83;;;;;;;;;;4990012;28;20030;-57
2023/07/11 09:53:45;;;;;;;613.10;482.92;;;;;;;;;;4988317;28;20049;-58
2023/07/11 09:56:12;;;;;;;602.85;535.22;;;;;;;;;;4987747;28;20118;-58
2023/07/11 09:58:37;;;;;;;614.38;519.92;;;;;;;;;;4989364;28;20037;-57
2023/07/11 10:01:04;;;;;;;488.30;438.67;;;;;;;;;;4987648;28;20046;-57
2023/07/11 10:03:34;;;;;;;619.10;554.75;;;;;;;;;;4987953;28;20279;-58
2023/07/11 10:05:59;;;;;;;323.07;212.50;;;;;;;;;;4987329;28;20111;-57
2023/07/11 10:08:29;;;;;;;275.33;165.17;;;;;;;;;;4988097;28;20530;-57
2023/07/11 10:11:00;;;;;;;596.73;462.77;;;;;;;;;;4987497;28;20042;-57
2023/07/11 10:13:25;;;;;;;633.25;565.22;;;;;;;;;;4987526;28;20381;-58
2023/07/11 10:15:54;;;;;;;545.73;478.90;;;;;;;;;;4987193;28;20072;-57
2023/07/11 10:18:22;;;;;;;573.67;408.38;;;;;;;;;;4988993;28;20018;-58
2023/07/11 10:20:49;;;;;;;585.47;527.33;;;;;;;;;;4987012;28;20047;-60
2023/07/11 10:23:18;;;;;;;401.33;212.32;;;;;;;;;;4988576;28;20041;-58
2023/07/11 10:25:43;;;;;;;525.35;367.00;;;;;;;;;;4988603;28;20076;-59
2023/07/11 10:28:15;;;;;;;428.20;205.93;;;;;;;;;;4988364;28;20108;-58
2023/07/11 10:30:40;;;;;;;512.83;463.73;;;;;;;;;;4989465;28;20042;-57
2023/07/11 10:33:18;;;;;;;79.13;66.35;;;;;;;;;;4987005;28;20061;-58
2023/07/11 10:35:43;;;;;;;334.67;233.27;;;;;;;;;;4988069;28;20634;-56
2023/07/11 10:38:16;;;;;;;302.05;237.25;;;;;;;;;;4988173;28;20034;-57
2023/07/11 10:40:43;;;;;;;175.70;131.73;;;;;;;;;;4987043;28;20041;-57
2023/07/11 10:43:22;;;;;;;464.35;217.13;;;;;;;;;;4988207;28;20113;-58
2023/07/11 10:45:48;;;;;;;1712.40;444.20;;;;;;;;;;4985897;28;20491;-57
2023/07/11 10:48:16;;;;;;;114.25;85.85;;;;;;;;;;4987997;28;20092;-57
2023/07/11 10:50:44;;;;;;;667.70;497.08;;;;;;;;;;4988275;28;20057;-57
2023/07/11 10:53:30;;;;;;;529.75;412.63;;;;;;;;;;4986620;28;20027;-58
2023/07/11 10:55:59;;;;;;;633.78;565.72;;;;;;;;;;4988674;28;20480;-59
2023/07/11 10:58:24;;;;;;;369.67;255.20;;;;;;;;;;4988589;28;20081;-59
2023/07/11 11:00:49;;;;;;;552.57;492.50;;;;;;;;;;4986079;28;20042;-58
2023/07/11 11:03:17;;;;;;;547.83;474.43;;;;;;;;;;4987659;28;20030;-57
2023/07/11 11:05:46;;;;;;;499.77;299.65;;;;;;;;;;4989768;28;20762;-57
2023/07/11 11:08:31;;;;;;;615.35;549.00;;;;;;;;;;4985641;28;20044;-59
2023/07/11 11:10:56;;;;;;;654.42;572.67;;;;;;;;;;4986251;28;20875;-58
2023/07/11 11:13:30;;;;;;;729.57;560.17;;;;;;;;;;4987986;28;20034;-56
2023/07/11 11:15:59;;;;;;;1130.60;672.95;;;;;;;;;;4986768;28;20041;-57
2023/07/11 11:18:33;;;;;;;788.97;455.98;;;;;;;;;;4989074;28;20034;-57
2023/07/11 11:21:08;;;;;;;403.05;214.02;;;;;;;;;;4987534;28;20578;-59
2023/07/11 11:23:47;;;;;;;419.60;218.38;;;;;;;;;;4990935;28;20034;-60
2023/07/11 11:26:15;;;;;;;359.65;177.55;;;;;;;;;;4986778;28;20030;-58
2023/07/11 11:28:49;;;;;;;107.13;52.17;;;;;;;;;;4986864;28;20042;-59
2023/07/11 11:31:17;;;;;;;591.92;520.67;;;;;;;;;;4988983;28;20037;-57
2023/07/11 11:33:43;;;;;;;1053.10;529.67;;;;;;;;;;4989404;28;20038;-58
2023/07/11 11:36:27;;;;;;;599.90;421.37;;;;;;;;;;4986834;28;20029;-57
2023/07/11 11:39:04;;;;;;;631.17;524.35;;;;;;;;;;4985447;28;20034;-57
2023/07/11 11:41:35;;;;;;;241.25;197.00;;;;;;;;;;4987401;28;20045;-55
2023/07/11 11:44:03;;;;;;;514.38;459.00;;;;;;;;;;4985853;28;20061;-58
2023/07/11 11:46:28;;;;;;;575.22;425.55;;;;;;;;;;4985831;28;20106;-57
2023/07/11 11:48:56;;;;;;;601.90;467.65;;;;;;;;;;4985470;28;20062;-58
2023/07/11 11:51:22;;;;;;;496.15;226.43;;;;;;;;;;4986592;28;20027;-59
2023/07/11 11:54:01;;;;;;;592.80;517.70;;;;;;;;;;4986276;28;20122;-58
2023/07/11 11:56:27;;;;;;;491.80;381.52;;;;;;;;;;4984526;28;20034;-58
2023/07/11 11:58:52;;;;;;;454.00;277.77;;;;;;;;;;4986244;28;20088;-56
2023/07/11 12:01:32;;;;;;;454.10;346.73;;;;;;;;;;4985286;28;20197;-55
2023/07/11 12:03:57;;;;;;;552.35;491.85;;;;;;;;;;4984317;28;20025;-59
2023/07/11 12:06:25;;;;;;;521.53;470.20;;;;;;;;;;4985022;28;20023;-56
2023/07/11 12:09:10;;;;;;;508.77;456.05;;;;;;;;;;4986538;28;20072;-57
2023/07/11 12:11:41;;;;;;;484.30;405.80;;;;;;;;;;4986753;28;20046;-58
2023/07/11 12:14:06;;;;;;;;;;;;;;;;;;4985310;28;20129;-57
2023/07/11 12:16:32;;;;;;;615.10;443.30;;;;;;;;;;4987727;28;19913;-58
2023/07/11 12:19:01;;;;;;;880.42;481.25;;;;;;;;;;4984940;28;20030;-56
2023/07/11 12:21:31;;;;;;;496.98;446.55;;;;;;;;;;4986187;28;20491;-58
2023/07/11 12:24:16;;;;;;;998.92;520.03;;;;;;;;;;4985537;28;20550;-59
2023/07/11 12:26:41;;;;;;;513.15;450.55;;;;;;;;;;4985455;28;20030;-56
2023/07/11 12:29:25;;;;;;;376.40;199.13;;;;;;;;;;4986253;28;20021;-57
2023/07/11 12:32:10;;;;;;;592.75;311.75;;;;;;;;;;4984205;28;20045;-59
2023/07/11 12:34:36;;;;;;;413.58;316.50;;;;;;;;;;4985885;28;20355;-57
2023/07/11 12:37:02;;;;;;;411.50;369.63;;;;;;;;;;4984463;28;20038;-59
2023/07/11 12:39:50;;;;;;;706.20;581.38;;;;;;;;;;4984893;28;20396;-56
2023/07/11 12:42:42;;;;;;;536.45;455.13;;;;;;;;;;4984158;28;20068;-59
2023/07/11 12:45:14;;;;;;;350.52;245.38;;;;;;;;;;4982954;28;20034;-57
2023/07/11 12:47:40;;;;;;;562.08;504.40;;;;;;;;;;4984854;28;20046;-58
2023/07/11 12:50:15;;;;;;;512.25;462.48;;;;;;;;;;4984563;28;20073;-58
2023/07/11 12:52:40;;;;;;;489.13;414.17;;;;;;;;;;4986889;28;20018;-59
2023/07/11 12:55:10;;;;;;;563.80;507.87;;;;;;;;;;4984936;28;20057;-59
2023/07/11 12:57:42;;;;;;;586.50;458.70;;;;;;;;;;4987438;28;20107;-57
2023/07/11 13:00:16;;;;;;;627.70;497.55;;;;;;;;;;4983422;28;20061;-57
2023/07/11 13:02:41;;;;;;;468.02;419.17;;;;;;;;;;4989111;28;20084;-58
2023/07/11 13:05:09;;;;;;;556.13;503.03;;;;;;;;;;4986205;28;20026;-57
2023/07/11 13:07:35;;;;;;;506.50;445.75;;;;;;;;;;4984693;28;20060;-56
2023/07/11 13:10:01;;;;;;;372.90;332.00;;;;;;;;;;4984689;28;20022;-58
2023/07/11 13:12:37;;;;;;;544.88;487.75;;;;;;;;;;4986239;28;20026;-57
2023/07/11 13:15:21;;;;;;;480.25;434.98;;;;;;;;;;4984290;28;20439;-59
2023/07/11 13:17:50;;;;;;;325.05;289.40;;;;;;;;;;4988184;28;20169;-59
2023/07/11 13:20:16;;;;;;;418.50;362.88;;;;;;;;;;4987166;28;20050;-59
2023/07/11 13:22:42;;;;;;;300.90;256.73;;;;;;;;;;4990899;28;20105;-59
2023/07/11 13:25:11;;;;;;;422.73;379.75;;;;;;;;;;4987286;28;20109;-58
2023/07/11 13:27:41;;;;;;;506.00;390.92;;;;;;;;;;5023523;28;20471;-57
2023/07/11 13:30:17;;;;;;;455.33;364.92;;;;;;;;;;5007265;28;20023;-58
2023/07/11 13:32:42;;;;;;;521.50;467.13;;;;;;;;;;5009324;28;20438;-60
2023/07/11 13:35:14;;;;;;;648.17;514.67;;;;;;;;;;5008278;28;20025;-58
2023/07/11 13:37:45;;;;;;;676.28;560.25;;;;;;;;;;5005063;28;20061;-58
2023/07/11 13:40:29;;;;;;;486.13;401.50;;;;;;;;;;4989475;28;20285;-59
2023/07/11 13:42:55;;;;;;;476.63;425.13;;;;;;;;;;5008886;28;20216;-57
2023/07/11 13:45:21;;;;;;;424.55;378.67;;;;;;;;;;5007777;28;20414;-58
2023/07/11 13:47:47;;;;;;;470.83;409.37;;;;;;;;;;5008709;28;20695;-54
2023/07/11 13:50:20;;;;;;;433.77;379.90;;;;;;;;;;5008207;28;20060;-57
2023/07/11 13:52:53;;;;;;;637.60;526.30;;;;;;;;;;5008353;28;20113;-59
2023/07/11 13:55:26;;;;;;;447.77;400.90;;;;;;;;;;5006597;28;20032;-58